Milwaukee, WI

2:27 PM CDT on July 06, 2015 (GMT -0500)
Milwaukee Harbor | | Change Station
CLOSE
Current Station
Personal Weather Station
Location: Milwaukee, WI
Elevation: 591 ft
Nearby Weather Stations

Elev 591 ft 43.02 °N, 87.91 °W | Updated 8 seconds ago

Partly Cloudy
Partly Cloudy
74.8 °F
Feels Like 73 °F
N
0.9
Wind Variable Wind from South
Gusts 2.5 mph

Today
High -- | Low -- °F
--% Chance of Precip.
Yesterday
High -- | Low -- °F
Precip. -- in
5:19 AM 8:33 PM
Waning Gibbous, 73% visible
Pressure 29.89 in
Visibility 9.0 miles
Clouds Few 3600 ft
Scattered Clouds 9000 ft
Mostly Cloudy 11000 ft
Heat Index 73 °F
Dew Point 72 °F
Humidity 92%
Rainfall 0.27 in
Snow Depth Not available.
UV 2.0 out of 12
Pollen 3.30 out of 12
Air Quality Not available.
Flu Activity Not available.
METAR KMKE 061852Z 22006KT 9SM -RA FEW036 SCT090 BKN110 24/21 A2990 RMK AO2 PK WND 24034/1818 WSHFT 1808 RAB20 TSB21E44 SLP122 OCNL LTG DSNT S CB DSNT E P0006 T02390211

More Conditions Fewer Conditions

Pressure 29.89 in
Visibility 9.0 miles
Clouds Few 3600 ft
Scattered Clouds 9000 ft
Mostly Cloudy 11000 ft
Heat Index 73 °F
Dew Point 72 °F
Humidity 92%
Rainfall 0.27 in
Snow Depth Not available.
UV 2.0 out of 12
Pollen 3.30 out of 12
Air Quality Not available.
Flu Activity Not available.
METAR KMKE 061852Z 22006KT 9SM -RA FEW036 SCT090 BKN110 24/21 A2990 RMK AO2 PK WND 24034/1818 WSHFT 1808 RAB20 TSB21E44 SLP122 OCNL LTG DSNT S CB DSNT E P0006 T02390211

More Conditions Fewer Conditions

10-Day Weather Forecast

×

Almanac

Astronomy

Jul. 06, 2015 Rise Set
Actual Time
Civil Twilight
Nautical Twilight
Astronomical Twilight
Moon
Length of Visible Light
Length of Day
Tomorrow will be .
, % of the Moon is Illuminated

Today's Extremes

State Highs State Lows

Community

WunderPhotos

Upload Photos

1,835,621 photos uploaded!

WunderBlogs® & News

Nearby

Air Quality

  Air Quality AQ Index Pollutant
Not available.

Snow Depth

Station Depth Elevation

Earthquake Activity

City Distance Mag. Time & Date
Minimum magnitude displayed is 2.5.

Coastal Water Temperatures

Place Temperature

Stations

Nearby Weather Stations

Station Location Temp. Windchill Dew Point Humidity Wind Precip. Elev Updated Type